sensor_id;sensor_type;location;lat;lon;timestamp;pressure;altitude;pressure_sealevel;temperature;humidity
54262;BME280;40174;52.364;6.452;2023-08-01T00:01:27;99589.22;;;15.63;100.00
54262;BME280;40174;52.364;6.452;2023-08-01T00:03:54;99574.88;;;15.64;100.00
54262;BME280;40174;52.364;6.452;2023-08-01T00:06:21;99574.25;;;15.62;100.00
54262;BME280;40174;52.364;6.452;2023-08-01T00:08:49;99567.06;;;15.63;100.00
54262;BME280;40174;52.364;6.452;2023-08-01T00:11:16;99559.94;;;15.63;100.00
54262;BME280;40174;52.364;6.452;2023-08-01T00:13:43;99559.09;;;15.63;100.00
54262;BME280;40174;52.364;6.452;2023-08-01T00:16:11;99562.38;;;15.65;100.00
54262;BME280;40174;52.364;6.452;2023-08-01T00:18:37;99565.91;;;15.65;100.00
54262;BME280;40174;52.364;6.452;2023-08-01T00:21:04;99560.13;;;15.62;100.00
54262;BME280;40174;52.364;6.452;2023-08-01T00:23:35;99567.63;;;15.58;100.00
54262;BME280;40174;52.364;6.452;2023-08-01T00:26:02;99558.09;;;15.64;100.00
54262;BME280;40174;52.364;6.452;2023-08-01T00:28:29;99547.91;;;15.67;100.00
54262;BME280;40174;52.364;6.452;2023-08-01T00:31:02;99548.06;;;15.66;100.00
54262;BME280;40174;52.364;6.452;2023-08-01T00:33:30;99546.06;;;15.68;100.00
54262;BME280;40174;52.364;6.452;2023-08-01T00:35:57;99547.81;;;15.61;100.00
54262;BME280;40174;52.364;6.452;2023-08-01T00:38:23;99550.47;;;15.61;100.00
54262;BME280;40174;52.364;6.452;2023-08-01T00:40:50;99546.16;;;15.59;100.00
54262;BME280;40174;52.364;6.452;2023-08-01T00:43:17;99538.56;;;15.56;100.00
54262;BME280;40174;52.364;6.452;2023-08-01T00:45:45;99541.22;;;15.56;100.00
54262;BME280;40174;52.364;6.452;2023-08-01T00:48:12;99539.38;;;15.57;100.00
54262;BME280;40174;52.364;6.452;2023-08-01T00:50:40;99532.03;;;15.59;100.00
54262;BME280;40174;52.364;6.452;2023-08-01T00:53:06;99533.00;;;15.58;100.00
54262;BME280;40174;52.364;6.452;2023-08-01T00:55:34;99525.03;;;15.58;100.00
54262;BME280;40174;52.364;6.452;2023-08-01T00:58:01;99519.91;;;15.56;100.00
54262;BME280;40174;52.364;6.452;2023-08-01T01:00:28;99508.44;;;15.56;100.00
54262;BME280;40174;52.364;6.452;2023-08-01T01:02:55;99511.72;;;15.58;100.00
54262;BME280;40174;52.364;6.452;2023-08-01T01:05:22;99501.44;;;15.55;100.00
54262;BME280;40174;52.364;6.452;2023-08-01T01:07:52;99495.06;;;15.49;100.00
54262;BME280;40174;52.364;6.452;2023-08-01T01:10:19;99502.19;;;15.49;100.00
54262;BME280;40174;52.364;6.452;2023-08-01T01:12:45;99489.09;;;15.47;100.00
54262;BME280;40174;52.364;6.452;2023-08-01T01:15:13;99482.66;;;15.42;100.00
54262;BME280;40174;52.364;6.452;2023-08-01T01:17:39;99487.00;;;15.43;100.00
54262;BME280;40174;52.364;6.452;2023-08-01T01:20:07;99487.81;;;15.43;100.00
54262;BME280;40174;52.364;6.452;2023-08-01T01:22:36;99480.56;;;15.37;100.00
54262;BME280;40174;52.364;6.452;2023-08-01T01:25:04;99489.56;;;15.36;100.00
54262;BME280;40174;52.364;6.452;2023-08-01T01:27:33;99484.97;;;15.30;100.00
54262;BME280;40174;52.364;6.452;2023-08-01T01:30:02;99487.47;;;15.31;100.00
54262;BME280;40174;52.364;6.452;2023-08-01T01:32:30;99476.34;;;15.28;100.00
54262;BME280;40174;52.364;6.452;2023-08-01T01:34:57;99474.00;;;15.18;100.00
54262;BME280;40174;52.364;6.452;2023-08-01T01:37:24;99484.00;;;15.16;100.00
54262;BME280;40174;52.364;6.452;2023-08-01T01:39:53;99475.56;;;15.12;100.00
54262;BME280;40174;52.364;6.452;2023-08-01T01:42:19;99478.03;;;15.14;100.00
54262;BME280;40174;52.364;6.452;2023-08-01T01:44:46;99465.28;;;15.09;100.00
54262;BME280;40174;52.364;6.452;2023-08-01T01:47:13;99464.38;;;15.02;100.00
54262;BME280;40174;52.364;6.452;2023-08-01T01:49:39;99473.34;;;15.01;100.00
54262;BME280;40174;52.364;6.452;2023-08-01T01:52:06;99473.09;;;14.96;100.00
54262;BME280;40174;52.364;6.452;2023-08-01T01:54:33;99469.63;;;14.95;100.00
54262;BME280;40174;52.364;6.452;2023-08-01T01:57:01;99471.81;;;14.92;100.00
54262;BME280;40174;52.364;6.452;2023-08-01T01:59:27;99474.66;;;14.90;100.00
54262;BME280;40174;52.364;6.452;2023-08-01T02:01:54;99471.34;;;14.88;100.00
54262;BME280;40174;52.364;6.452;2023-08-01T02:04:21;99473.34;;;14.86;100.00
54262;BME280;40174;52.364;6.452;2023-08-01T02:06:48;99462.09;;;14.84;100.00
54262;BME280;40174;52.364;6.452;2023-08-01T02:09:14;99472.09;;;14.82;100.00
54262;BME280;40174;52.364;6.452;2023-08-01T02:11:41;99467.59;;;14.83;100.00
54262;BME280;40174;52.364;6.452;2023-08-01T02:14:09;99467.13;;;14.79;100.00
54262;BME280;40174;52.364;6.452;2023-08-01T02:16:38;99467.50;;;14.76;100.00
54262;BME280;40174;52.364;6.452;2023-08-01T02:19:04;99458.22;;;14.72;100.00
54262;BME280;40174;52.364;6.452;2023-08-01T02:21:33;99461.91;;;14.71;100.00
54262;BME280;40174;52.364;6.452;2023-08-01T02:24:00;99462.91;;;14.70;100.00
54262;BME280;40174;52.364;6.452;2023-08-01T02:26:26;99455.66;;;14.64;100.00
54262;BME280;40174;52.364;6.452;2023-08-01T02:28:54;99457.22;;;14.58;100.00
54262;BME280;40174;52.364;6.452;2023-08-01T02:31:22;99460.41;;;14.53;100.00
54262;BME280;40174;52.364;6.452;2023-08-01T02:33:49;99455.75;;;14.55;100.00
54262;BME280;40174;52.364;6.452;2023-08-01T02:36:15;99455.91;;;14.54;100.00
54262;BME280;40174;52.364;6.452;2023-08-01T02:38:42;99456.44;;;14.49;100.00
54262;BME280;40174;52.364;6.452;2023-08-01T02:41:09;99453.78;;;14.49;100.00
54262;BME280;40174;52.364;6.452;2023-08-01T02:43:35;99452.50;;;14.45;100.00
54262;BME280;40174;52.364;6.452;2023-08-01T02:46:02;99454.50;;;14.43;100.00
54262;BME280;40174;52.364;6.452;2023-08-01T02:48:33;99452.06;;;14.42;100.00
54262;BME280;40174;52.364;6.452;2023-08-01T02:51:00;99451.03;;;14.43;100.00
54262;BME280;40174;52.364;6.452;2023-08-01T02:53:27;99450.22;;;14.42;100.00
54262;BME280;40174;52.364;6.452;2023-08-01T02:55:54;99454.88;;;14.40;100.00
54262;BME280;40174;52.364;6.452;2023-08-01T02:58:20;99457.06;;;14.37;100.00
54262;BME280;40174;52.364;6.452;2023-08-01T03:00:46;99448.81;;;14.31;100.00
54262;BME280;40174;52.364;6.452;2023-08-01T03:03:13;99445.13;;;14.32;100.00
54262;BME280;40174;52.364;6.452;2023-08-01T03:05:42;99450.81;;;14.29;100.00
54262;BME280;40174;52.364;6.452;2023-08-01T03:08:09;99457.97;;;14.29;100.00
54262;BME280;40174;52.364;6.452;2023-08-01T03:10:36;99455.16;;;14.30;100.00
54262;BME280;40174;52.364;6.452;2023-08-01T03:13:02;99457.16;;;14.28;100.00
54262;BME280;40174;52.364;6.452;2023-08-01T03:15:29;99452.19;;;14.25;100.00
54262;BME280;40174;52.364;6.452;2023-08-01T03:17:55;99456.03;;;14.23;100.00
54262;BME280;40174;52.364;6.452;2023-08-01T03:20:22;99464.81;;;14.23;100.00
54262;BME280;40174;52.364;6.452;2023-08-01T03:22:50;99459.50;;;14.23;100.00
54262;BME280;40174;52.364;6.452;2023-08-01T03:25:17;99459.72;;;14.22;100.00
54262;BME280;40174;52.364;6.452;2023-08-01T03:27:44;99459.41;;;14.17;100.00
54262;BME280;40174;52.364;6.452;2023-08-01T03:30:10;99450.63;;;14.16;100.00
54262;BME280;40174;52.364;6.452;2023-08-01T03:32:37;99454.84;;;14.10;100.00
54262;BME280;40174;52.364;6.452;2023-08-01T03:35:04;99461.63;;;14.13;100.00
54262;BME280;40174;52.364;6.452;2023-08-01T03:37:31;99460.16;;;14.10;100.00
54262;BME280;40174;52.364;6.452;2023-08-01T03:39:59;99452.34;;;14.09;100.00
54262;BME280;40174;52.364;6.452;2023-08-01T03:42:26;99458.13;;;14.12;100.00
54262;BME280;40174;52.364;6.452;2023-08-01T03:44:52;99463.25;;;14.14;100.00
54262;BME280;40174;52.364;6.452;2023-08-01T03:47:19;99460.16;;;14.10;100.00
54262;BME280;40174;52.364;6.452;2023-08-01T03:49:46;99454.34;;;14.07;100.00
54262;BME280;40174;52.364;6.452;2023-08-01T03:52:14;99458.19;;;14.04;100.00
54262;BME280;40174;52.364;6.452;2023-08-01T03:54:40;99466.81;;;14.06;100.00
54262;BME280;40174;52.364;6.452;2023-08-01T03:57:09;99462.59;;;14.12;100.00
54262;BME280;40174;52.364;6.452;2023-08-01T03:59:36;99467.75;;;14.13;100.00
54262;BME280;40174;52.364;6.452;2023-08-01T04:02:03;99474.25;;;14.11;100.00
54262;BME280;40174;52.364;6.452;2023-08-01T04:04:30;99476.09;;;14.10;100.00
54262;BME280;40174;52.364;6.452;2023-08-01T04:06:57;99474.69;;;14.14;100.00
54262;BME280;40174;52.364;6.452;2023-08-01T04:09:24;99471.69;;;14.18;100.00
54262;BME280;40174;52.364;6.452;2023-08-01T04:11:51;99473.72;;;14.16;100.00
54262;BME280;40174;52.364;6.452;2023-08-01T04:14:19;99473.06;;;14.13;100.00
54262;BME280;40174;52.364;6.452;2023-08-01T04:16:45;99474.34;;;14.18;100.00
54262;BME280;40174;52.364;6.452;2023-08-01T04:19:12;99472.53;;;14.18;100.00
54262;BME280;40174;52.364;6.452;2023-08-01T04:21:39;99488.47;;;14.18;100.00
54262;BME280;40174;52.364;6.452;2023-08-01T04:24:06;99479.97;;;14.23;100.00
54262;BME280;40174;52.364;6.452;2023-08-01T04:26:32;99483.25;;;14.25;100.00
54262;BME280;40174;52.364;6.452;2023-08-01T04:28:59;99478.75;;;14.25;100.00
54262;BME280;40174;52.364;6.452;2023-08-01T04:31:27;99476.75;;;14.27;100.00
54262;BME280;40174;52.364;6.452;2023-08-01T04:33:54;99477.41;;;14.29;100.00
54262;BME280;40174;52.364;6.452;2023-08-01T04:36:20;99473.38;;;14.33;100.00
54262;BME280;40174;52.364;6.452;2023-08-01T04:38:47;99472.19;;;14.36;100.00
54262;BME280;40174;52.364;6.452;2023-08-01T04:41:14;99466.50;;;14.39;100.00
54262;BME280;40174;52.364;6.452;2023-08-01T04:43:40;99474.13;;;14.42;100.00
54262;BME280;40174;52.364;6.452;2023-08-01T04:46:07;99479.25;;;14.44;100.00
54262;BME280;40174;52.364;6.452;2023-08-01T04:48:35;99474.78;;;14.44;100.00
54262;BME280;40174;52.364;6.452;2023-08-01T04:51:02;99477.06;;;14.47;100.00
54262;BME280;40174;52.364;6.452;2023-08-01T04:53:28;99478.38;;;14.51;100.00
54262;BME280;40174;52.364;6.452;2023-08-01T04:55:55;99471.38;;;14.50;100.00
54262;BME280;40174;52.364;6.452;2023-08-01T04:58:22;99473.69;;;14.53;100.00
54262;BME280;40174;52.364;6.452;2023-08-01T05:00:48;99468.38;;;14.53;100.00
54262;BME280;40174;52.364;6.452;2023-08-01T05:03:15;99476.66;;;14.59;100.00
54262;BME280;40174;52.364;6.452;2023-08-01T05:05:43;99478.94;;;14.62;100.00
54262;BME280;40174;52.364;6.452;2023-08-01T05:08:09;99476.09;;;14.63;100.00
54262;BME280;40174;52.364;6.452;2023-08-01T05:10:36;99490.88;;;14.66;100.00
54262;BME280;40174;52.364;6.452;2023-08-01T05:13:03;99480.88;;;14.68;100.00
54262;BME280;40174;52.364;6.452;2023-08-01T05:15:29;99483.19;;;14.71;100.00
54262;BME280;40174;52.364;6.452;2023-08-01T05:17:56;99482.16;;;14.72;100.00
54262;BME280;40174;52.364;6.452;2023-08-01T05:20:23;99488.94;;;14.74;100.00
54262;BME280;40174;52.364;6.452;2023-08-01T05:22:52;99492.25;;;14.76;100.00
54262;BME280;40174;52.364;6.452;2023-08-01T05:25:19;99488.41;;;14.79;100.00
54262;BME280;40174;52.364;6.452;2023-08-01T05:27:45;99493.56;;;14.81;100.00
54262;BME280;40174;52.364;6.452;2023-08-01T05:30:12;99503.16;;;14.82;100.00
54262;BME280;40174;52.364;6.452;2023-08-01T05:32:39;99506.69;;;14.82;100.00
54262;BME280;40174;52.364;6.452;2023-08-01T05:35:07;99499.50;;;14.83;100.00
54262;BME280;40174;52.364;6.452;2023-08-01T05:37:34;99500.97;;;14.85;100.00
54262;BME280;40174;52.364;6.452;2023-08-01T05:40:04;99507.59;;;14.89;100.00
54262;BME280;40174;52.364;6.452;2023-08-01T05:42:31;99512.34;;;14.94;100.00
54262;BME280;40174;52.364;6.452;2023-08-01T05:44:58;99511.81;;;14.99;100.00
54262;BME280;40174;52.364;6.452;2023-08-01T05:47:25;99507.31;;;14.99;100.00
54262;BME280;40174;52.364;6.452;2023-08-01T05:49:52;99514.56;;;15.05;100.00
54262;BME280;40174;52.364;6.452;2023-08-01T05:52:19;99512.34;;;15.09;100.00
54262;BME280;40174;52.364;6.452;2023-08-01T05:54:46;99514.19;;;15.08;100.00
54262;BME280;40174;52.364;6.452;2023-08-01T05:57:14;99503.19;;;15.11;100.00
54262;BME280;40174;52.364;6.452;2023-08-01T05:59:41;99508.13;;;15.14;100.00
54262;BME280;40174;52.364;6.452;2023-08-01T06:02:07;99517.94;;;15.14;100.00
54262;BME280;40174;52.364;6.452;2023-08-01T06:04:34;99522.25;;;15.15;100.00
54262;BME280;40174;52.364;6.452;2023-08-01T06:07:00;99510.78;;;15.14;100.00
54262;BME280;40174;52.364;6.452;2023-08-01T06:09:27;99505.28;;;15.16;100.00
54262;BME280;40174;52.364;6.452;2023-08-01T06:11:54;99504.66;;;15.14;100.00
54262;BME280;40174;52.364;6.452;2023-08-01T06:14:22;99497.31;;;15.16;100.00
54262;BME280;40174;52.364;6.452;2023-08-01T06:16:48;99502.25;;;15.19;100.00
54262;BME280;40174;52.364;6.452;2023-08-01T06:19:15;99503.06;;;15.20;100.00
54262;BME280;40174;52.364;6.452;2023-08-01T06:21:42;99509.25;;;15.20;100.00
54262;BME280;40174;52.364;6.452;2023-08-01T06:24:08;99513.91;;;15.18;100.00
54262;BME280;40174;52.364;6.452;2023-08-01T06:26:36;99511.59;;;15.15;100.00
54262;BME280;40174;52.364;6.452;2023-08-01T06:29:02;99519.78;;;15.13;100.00
54262;BME280;40174;52.364;6.452;2023-08-01T06:31:30;99527.78;;;15.13;100.00
54262;BME280;40174;52.364;6.452;2023-08-01T06:33:57;99523.44;;;15.12;100.00
54262;BME280;40174;52.364;6.452;2023-08-01T06:36:23;99520.63;;;15.14;100.00
54262;BME280;40174;52.364;6.452;2023-08-01T06:38:50;99524.25;;;15.13;100.00
54262;BME280;40174;52.364;6.452;2023-08-01T06:41:17;99524.09;;;15.14;100.00
54262;BME280;40174;52.364;6.452;2023-08-01T06:43:43;99538.03;;;15.16;100.00
54262;BME280;40174;52.364;6.452;2023-08-01T06:46:10;99531.69;;;15.17;100.00
54262;BME280;40174;52.364;6.452;2023-08-01T06:48:38;99522.97;;;15.24;100.00
54262;BME280;40174;52.364;6.452;2023-08-01T06:51:04;99516.66;;;15.25;100.00
54262;BME280;40174;52.364;6.452;2023-08-01T06:53:31;99510.31;;;15.26;100.00
54262;BME280;40174;52.364;6.452;2023-08-01T06:55:58;99504.59;;;15.29;100.00
54262;BME280;40174;52.364;6.452;2023-08-01T06:58:24;99508.56;;;15.33;100.00
54262;BME280;40174;52.364;6.452;2023-08-01T07:00:51;99498.56;;;15.35;100.00
54262;BME280;40174;52.364;6.452;2023-08-01T07:03:18;99504.13;;;15.40;100.00
54262;BME280;40174;52.364;6.452;2023-08-01T07:05:46;99501.38;;;15.48;100.00
54262;BME280;40174;52.364;6.452;2023-08-01T07:08:12;99507.34;;;15.50;100.00
54262;BME280;40174;52.364;6.452;2023-08-01T07:10:39;99499.72;;;15.47;100.00
54262;BME280;40174;52.364;6.452;2023-08-01T07:13:06;99506.13;;;15.53;100.00
54262;BME280;40174;52.364;6.452;2023-08-01T07:15:33;99511.34;;;15.61;100.00
54262;BME280;40174;52.364;6.452;2023-08-01T07:18:00;99510.63;;;15.67;100.00
54262;BME280;40174;52.364;6.452;2023-08-01T07:20:26;99509.50;;;15.76;100.00
54262;BME280;40174;52.364;6.452;2023-08-01T07:22:54;99504.69;;;15.87;100.00
54262;BME280;40174;52.364;6.452;2023-08-01T07:25:21;99511.16;;;15.99;100.00
54262;BME280;40174;52.364;6.452;2023-08-01T07:27:48;99513.38;;;16.17;100.00
54262;BME280;40174;52.364;6.452;2023-08-01T07:30:15;99516.53;;;16.27;100.00
54262;BME280;40174;52.364;6.452;2023-08-01T07:32:42;99513.56;;;16.37;100.00
54262;BME280;40174;52.364;6.452;2023-08-01T07:35:09;99514.44;;;16.44;100.00
54262;BME280;40174;52.364;6.452;2023-08-01T07:37:36;99508.66;;;16.40;100.00
54262;BME280;40174;52.364;6.452;2023-08-01T07:40:05;99521.94;;;16.34;100.00
54262;BME280;40174;52.364;6.452;2023-08-01T07:42:32;99530.13;;;16.32;100.00
54262;BME280;40174;52.364;6.452;2023-08-01T07:44:58;99519.66;;;16.31;100.00
54262;BME280;40174;52.364;6.452;2023-08-01T07:47:25;99529.88;;;16.27;100.00
54262;BME280;40174;52.364;6.452;2023-08-01T07:49:52;99523.47;;;16.21;100.00
54262;BME280;40174;52.364;6.452;2023-08-01T07:52:19;99525.09;;;16.23;100.00
54262;BME280;40174;52.364;6.452;2023-08-01T07:54:45;99525.34;;;16.28;100.00
54262;BME280;40174;52.364;6.452;2023-08-01T07:57:13;99532.59;;;16.34;100.00
54262;BME280;40174;52.364;6.452;2023-08-01T07:59:41;99526.69;;;16.38;100.00
54262;BME280;40174;52.364;6.452;2023-08-01T08:02:07;99531.44;;;16.43;100.00
54262;BME280;40174;52.364;6.452;2023-08-01T08:04:34;99537.91;;;16.55;100.00
54262;BME280;40174;52.364;6.452;2023-08-01T08:07:00;99539.41;;;16.65;100.00
54262;BME280;40174;52.364;6.452;2023-08-01T08:09:27;99531.41;;;16.65;100.00
54262;BME280;40174;52.364;6.452;2023-08-01T08:11:54;99529.22;;;16.75;100.00
54262;BME280;40174;52.364;6.452;2023-08-01T08:14:24;99532.44;;;16.92;100.00
54262;BME280;40174;52.364;6.452;2023-08-01T08:16:50;99532.72;;;17.03;100.00
54262;BME280;40174;52.364;6.452;2023-08-01T08:19:17;99535.09;;;17.27;100.00
54262;BME280;40174;52.364;6.452;2023-08-01T08:21:44;99540.13;;;17.50;100.00
54262;BME280;40174;52.364;6.452;2023-08-01T08:24:10;99533.38;;;17.54;100.00
54262;BME280;40174;52.364;6.452;2023-08-01T08:26:37;99538.75;;;17.67;100.00
54262;BME280;40174;52.364;6.452;2023-08-01T08:29:05;99547.06;;;17.92;100.00
54262;BME280;40174;52.364;6.452;2023-08-01T08:31:33;99541.94;;;17.91;100.00
54262;BME280;40174;52.364;6.452;2023-08-01T08:34:00;99545.25;;;18.06;100.00
54262;BME280;40174;52.364;6.452;2023-08-01T08:36:26;99547.91;;;17.99;100.00
54262;BME280;40174;52.364;6.452;2023-08-01T08:38:53;99542.16;;;18.02;100.00
54262;BME280;40174;52.364;6.452;2023-08-01T08:41:21;99549.38;;;18.08;100.00
54262;BME280;40174;52.364;6.452;2023-08-01T08:43:48;99546.09;;;18.20;100.00
54262;BME280;40174;52.364;6.452;2023-08-01T08:46:16;99544.47;;;18.25;100.00
54262;BME280;40174;52.364;6.452;2023-08-01T08:48:45;99542.81;;;18.24;100.00
54262;BME280;40174;52.364;6.452;2023-08-01T08:51:12;99544.25;;;18.34;100.00
54262;BME280;40174;52.364;6.452;2023-08-01T08:53:40;99551.25;;;18.28;100.00
54262;BME280;40174;52.364;6.452;2023-08-01T08:56:08;99546.28;;;18.25;100.00
54262;BME280;40174;52.364;6.452;2023-08-01T08:58:35;99554.53;;;18.23;100.00
54262;BME280;40174;52.364;6.452;2023-08-01T09:01:05;99555.16;;;18.25;100.00
54262;BME280;40174;52.364;6.452;2023-08-01T09:03:32;99552.50;;;18.25;100.00
54262;BME280;40174;52.364;6.452;2023-08-01T09:06:04;99544.47;;;18.19;100.00
54262;BME280;40174;52.364;6.452;2023-08-01T09:08:34;99545.72;;;18.30;100.00
54262;BME280;40174;52.364;6.452;2023-08-01T09:11:02;99540.13;;;18.31;100.00
54262;BME280;40174;52.364;6.452;2023-08-01T09:13:29;99543.25;;;18.48;100.00
54262;BME280;40174;52.364;6.452;2023-08-01T09:15:56;99554.94;;;18.67;100.00
54262;BME280;40174;52.364;6.452;2023-08-01T09:18:23;99543.44;;;18.73;100.00
54262;BME280;40174;52.364;6.452;2023-08-01T09:20:50;99551.44;;;19.00;100.00
54262;BME280;40174;52.364;6.452;2023-08-01T09:23:18;99542.31;;;19.21;100.00
54262;BME280;40174;52.364;6.452;2023-08-01T09:25:44;99537.56;;;19.29;100.00
54262;BME280;40174;52.364;6.452;2023-08-01T09:28:18;99551.78;;;19.30;100.00
54262;BME280;40174;52.364;6.452;2023-08-01T09:30:47;99553.19;;;19.39;100.00
54262;BME280;40174;52.364;6.452;2023-08-01T09:33:14;99548.66;;;19.40;100.00
54262;BME280;40174;52.364;6.452;2023-08-01T09:35:41;99559.59;;;19.31;100.00
54262;BME280;40174;52.364;6.452;2023-08-01T09:38:10;99562.28;;;19.31;100.00
54262;BME280;40174;52.364;6.452;2023-08-01T09:40:39;99592.38;;;19.27;100.00
54262;BME280;40174;52.364;6.452;2023-08-01T09:43:06;99557.13;;;19.30;100.00
54262;BME280;40174;52.364;6.452;2023-08-01T09:45:32;99576.31;;;19.27;100.00
54262;BME280;40174;52.364;6.452;2023-08-01T09:47:59;99581.06;;;19.18;100.00
54262;BME280;40174;52.364;6.452;2023-08-01T09:50:26;99595.53;;;18.97;100.00
54262;BME280;40174;52.364;6.452;2023-08-01T09:52:53;99617.78;;;18.84;100.00
54262;BME280;40174;52.364;6.452;2023-08-01T09:55:25;99602.50;;;18.72;100.00
54262;BME280;40174;52.364;6.452;2023-08-01T09:57:57;99604.78;;;18.68;100.00
54262;BME280;40174;52.364;6.452;2023-08-01T10:00:25;99592.84;;;18.57;100.00
54262;BME280;40174;52.364;6.452;2023-08-01T10:02:52;99596.34;;;18.64;100.00
54262;BME280;40174;52.364;6.452;2023-08-01T10:05:19;99596.97;;;18.80;100.00
54262;BME280;40174;52.364;6.452;2023-08-01T10:07:48;99597.19;;;18.85;100.00
54262;BME280;40174;52.364;6.452;2023-08-01T10:10:18;99602.97;;;18.82;100.00
54262;BME280;40174;52.364;6.452;2023-08-01T10:12:45;99616.50;;;18.74;100.00
54262;BME280;40174;52.364;6.452;2023-08-01T10:15:15;99619.59;;;18.57;100.00
54262;BME280;40174;52.364;6.452;2023-08-01T10:17:42;99614.84;;;18.39;100.00
54262;BME280;40174;52.364;6.452;2023-08-01T10:20:10;99625.34;;;18.41;100.00
54262;BME280;40174;52.364;6.452;2023-08-01T10:22:39;99629.44;;;18.30;100.00
54262;BME280;40174;52.364;6.452;2023-08-01T10:25:07;99630.00;;;18.12;100.00
54262;BME280;40174;52.364;6.452;2023-08-01T10:27:35;99622.53;;;17.94;100.00
54262;BME280;40174;52.364;6.452;2023-08-01T10:30:04;99625.72;;;17.76;100.00
54262;BME280;40174;52.364;6.452;2023-08-01T10:32:34;99620.78;;;17.73;100.00
54262;BME280;40174;52.364;6.452;2023-08-01T10:35:01;99618.72;;;17.75;100.00
54262;BME280;40174;52.364;6.452;2023-08-01T10:37:38;99623.31;;;17.81;100.00
54262;BME280;40174;52.364;6.452;2023-08-01T10:40:06;99619.06;;;18.00;100.00
54262;BME280;40174;52.364;6.452;2023-08-01T10:42:38;99628.19;;;18.33;100.00
54262;BME280;40174;52.364;6.452;2023-08-01T10:45:05;99622.69;;;18.47;100.00
54262;BME280;40174;52.364;6.452;2023-08-01T10:47:33;99628.25;;;18.73;100.00
54262;BME280;40174;52.364;6.452;2023-08-01T10:50:00;99622.06;;;18.72;100.00
54262;BME280;40174;52.364;6.452;2023-08-01T10:52:27;99618.41;;;18.80;100.00
54262;BME280;40174;52.364;6.452;2023-08-01T10:54:57;99628.06;;;18.81;100.00
54262;BME280;40174;52.364;6.452;2023-08-01T10:57:26;99636.50;;;18.78;100.00
54262;BME280;40174;52.364;6.452;2023-08-01T10:59:54;99632.16;;;18.70;100.00
54262;BME280;40174;52.364;6.452;2023-08-01T11:02:22;99637.28;;;18.65;100.00
54262;BME280;40174;52.364;6.452;2023-08-01T11:05:00;99640.78;;;18.45;100.00
54262;BME280;40174;52.364;6.452;2023-08-01T11:07:28;99653.91;;;18.34;100.00
54262;BME280;40174;52.364;6.452;2023-08-01T11:10:06;99648.47;;;18.07;100.00
54262;BME280;40174;52.364;6.452;2023-08-01T11:12:34;99651.75;;;18.02;100.00
54262;BME280;40174;52.364;6.452;2023-08-01T11:15:02;99645.16;;;17.92;100.00
54262;BME280;40174;52.364;6.452;2023-08-01T11:17:31;99646.50;;;17.81;100.00
54262;BME280;40174;52.364;6.452;2023-08-01T11:20:04;99641.75;;;17.76;100.00
54262;BME280;40174;52.364;6.452;2023-08-01T11:22:34;99646.47;;;17.74;100.00
54262;BME280;40174;52.364;6.452;2023-08-01T11:25:04;99649.53;;;17.71;100.00
54262;BME280;40174;52.364;6.452;2023-08-01T11:27:31;99659.84;;;17.74;100.00
54262;BME280;40174;52.364;6.452;2023-08-01T11:29:57;99664.38;;;17.74;100.00
54262;BME280;40174;52.364;6.452;2023-08-01T11:32:33;99665.38;;;17.73;100.00
54262;BME280;40174;52.364;6.452;2023-08-01T11:35:00;99673.22;;;17.74;100.00
54262;BME280;40174;52.364;6.452;2023-08-01T11:37:29;99665.81;;;17.76;100.00
54262;BME280;40174;52.364;6.452;2023-08-01T11:39:57;99669.75;;;17.80;100.00
54262;BME280;40174;52.364;6.452;2023-08-01T11:42:24;99667.78;;;18.02;100.00
54262;BME280;40174;52.364;6.452;2023-08-01T11:44:50;99672.41;;;18.28;100.00
54262;BME280;40174;52.364;6.452;2023-08-01T11:47:17;99671.69;;;18.68;100.00
54262;BME280;40174;52.364;6.452;2023-08-01T11:49:45;99665.13;;;18.97;100.00
54262;BME280;40174;52.364;6.452;2023-08-01T11:52:23;99673.53;;;19.47;100.00
54262;BME280;40174;52.364;6.452;2023-08-01T11:54:51;99667.50;;;19.79;100.00
54262;BME280;40174;52.364;6.452;2023-08-01T11:57:17;99661.28;;;19.85;100.00
54262;BME280;40174;52.364;6.452;2023-08-01T11:59:48;99670.59;;;19.82;100.00
54262;BME280;40174;52.364;6.452;2023-08-01T12:02:22;99672.88;;;19.65;100.00
54262;BME280;40174;52.364;6.452;2023-08-01T12:04:49;99690.66;;;19.40;100.00
54262;BME280;40174;52.364;6.452;2023-08-01T12:07:16;99687.56;;;19.29;100.00
54262;BME280;40174;52.364;6.452;2023-08-01T12:09:43;99684.91;;;19.09;100.00
54262;BME280;40174;52.364;6.452;2023-08-01T12:12:11;99697.91;;;18.99;100.00
54262;BME280;40174;52.364;6.452;2023-08-01T12:14:41;99688.59;;;18.82;100.00
54262;BME280;40174;52.364;6.452;2023-08-01T12:17:08;99700.91;;;18.76;100.00
54262;BME280;40174;52.364;6.452;2023-08-01T12:19:34;99702.34;;;18.72;100.00
54262;BME280;40174;52.364;6.452;2023-08-01T12:22:01;99688.34;;;18.63;100.00
54262;BME280;40174;52.364;6.452;2023-08-01T12:24:28;99698.44;;;18.61;100.00
54262;BME280;40174;52.364;6.452;2023-08-01T12:26:54;99693.69;;;18.57;100.00
54262;BME280;40174;52.364;6.452;2023-08-01T12:29:22;99699.50;;;18.80;100.00
54262;BME280;40174;52.364;6.452;2023-08-01T12:31:49;99700.31;;;19.41;100.00
54262;BME280;40174;52.364;6.452;2023-08-01T12:34:16;99706.03;;;19.91;100.00
54262;BME280;40174;52.364;6.452;2023-08-01T12:36:44;99693.47;;;20.30;100.00
54262;BME280;40174;52.364;6.452;2023-08-01T12:39:11;99709.38;;;20.31;100.00
54262;BME280;40174;52.364;6.452;2023-08-01T12:41:38;99704.78;;;19.93;100.00
54262;BME280;40174;52.364;6.452;2023-08-01T12:44:05;99711.03;;;19.74;100.00
54262;BME280;40174;52.364;6.452;2023-08-01T12:46:33;99706.97;;;20.17;100.00
54262;BME280;40174;52.364;6.452;2023-08-01T12:49:00;99710.44;;;20.24;100.00
54262;BME280;40174;52.364;6.452;2023-08-01T12:51:27;99702.94;;;20.39;100.00